createdAt,value
2023-03-01T00:01:27.149Z,-0.28
2023-03-01T00:03:54.702Z,-0.30
2023-03-01T00:06:21.924Z,-0.25
2023-03-01T00:08:48.495Z,-0.24
2023-03-01T00:11:27.723Z,-0.21
2023-03-01T00:13:57.710Z,-0.21
2023-03-01T00:16:27.844Z,-0.28
2023-03-01T00:18:56.229Z,-0.33
2023-03-01T00:21:23.820Z,-0.34
2023-03-01T00:23:51.166Z,-0.40
2023-03-01T00:26:19.318Z,-0.50
2023-03-01T00:28:45.984Z,-0.60
2023-03-01T00:31:15.260Z,-0.61
2023-03-01T00:33:42.202Z,-0.62
2023-03-01T00:36:10.485Z,-0.59
2023-03-01T00:38:41.167Z,-0.55
2023-03-01T00:41:10.035Z,-0.52
2023-03-01T00:43:39.776Z,-0.47
2023-03-01T00:46:08.929Z,-0.58
2023-03-01T00:48:36.704Z,-0.75
2023-03-01T00:51:24.174Z,-0.81
2023-03-01T00:53:57.606Z,-0.83
2023-03-01T00:56:24.815Z,-0.93
2023-03-01T00:58:51.852Z,-1.01
2023-03-01T01:01:24.521Z,-1.01
2023-03-01T01:03:52.632Z,-1.02
2023-03-01T01:06:25.227Z,-1.05
2023-03-01T01:08:52.807Z,-1.06
2023-03-01T01:11:20.048Z,-1.12
2023-03-01T01:13:47.599Z,-1.17
2023-03-01T01:16:14.933Z,-1.17
2023-03-01T01:18:41.559Z,-1.14
2023-03-01T01:21:10.882Z,-1.12
2023-03-01T01:23:39.301Z,-1.07
2023-03-01T01:26:08.509Z,-1.07
2023-03-01T01:28:35.173Z,-1.04
2023-03-01T01:31:01.736Z,-1.09
2023-03-01T01:33:28.450Z,-1.23
2023-03-01T01:35:55.107Z,-1.31
2023-03-01T01:38:22.357Z,-1.28
2023-03-01T01:40:50.756Z,-1.26
2023-03-01T01:43:30.160Z,-1.20
2023-03-01T01:46:02.224Z,-1.10
2023-03-01T01:48:46.017Z,-1.07
2023-03-01T01:51:16.297Z,-1.24
2023-03-01T01:53:46.639Z,-1.31
2023-03-01T01:56:15.658Z,-1.40
2023-03-01T01:58:44.522Z,-1.47
2023-03-01T02:01:11.705Z,-1.43
2023-03-01T02:03:43.680Z,-1.43
2023-03-01T02:06:20.094Z,-1.45
2023-03-01T02:08:49.383Z,-1.45
2023-03-01T02:11:16.292Z,-1.49
2023-03-01T02:13:43.600Z,-1.60
2023-03-01T02:16:13.435Z,-1.65
2023-03-01T02:18:42.118Z,-1.66
2023-03-01T02:21:27.173Z,-1.64
2023-03-01T02:23:56.584Z,-1.72
2023-03-01T02:26:35.050Z,-1.68
2023-03-01T02:29:01.705Z,-1.70
2023-03-01T02:31:43.248Z,-1.66
2023-03-01T02:34:14.093Z,-1.66
2023-03-01T02:36:51.059Z,-1.71
2023-03-01T02:39:35.363Z,-1.71
2023-03-01T02:42:03.625Z,-1.67
2023-03-01T02:44:30.154Z,-1.57
2023-03-01T02:46:58.528Z,-1.50
2023-03-01T02:49:24.978Z,-1.47
2023-03-01T02:52:06.692Z,-1.43
2023-03-01T02:55:12.861Z,-1.33
2023-03-01T02:57:43.173Z,-1.43
2023-03-01T03:00:23.586Z,-1.47
2023-03-01T03:02:53.048Z,-1.44
2023-03-01T03:05:22.537Z,-1.42
2023-03-01T03:07:50.008Z,-1.44
2023-03-01T03:10:30.668Z,-1.43
2023-03-01T03:13:00.722Z,-1.40
2023-03-01T03:15:28.296Z,-1.36
2023-03-01T03:17:55.455Z,-1.35
2023-03-01T03:20:24.918Z,-1.41
2023-03-01T03:22:53.386Z,-1.38
2023-03-01T03:25:20.870Z,-1.35
2023-03-01T03:27:49.078Z,-1.34
2023-03-01T03:30:18.882Z,-1.33
2023-03-01T03:32:53.057Z,-1.37
2023-03-01T03:35:27.003Z,-1.41
2023-03-01T03:38:03.180Z,-1.47
2023-03-01T03:40:32.606Z,-1.46
2023-03-01T03:42:59.078Z,-1.43
2023-03-01T03:45:25.614Z,-1.49
2023-03-01T03:47:52.120Z,-1.47
2023-03-01T03:50:19.255Z,-1.49
2023-03-01T03:52:45.922Z,-1.46
2023-03-01T03:55:13.658Z,-1.50
2023-03-01T03:57:42.689Z,-1.51
2023-03-01T04:00:15.576Z,-1.58
2023-03-01T04:02:46.111Z,-1.51
2023-03-01T04:05:15.187Z,-1.45
2023-03-01T04:07:43.135Z,-1.36
2023-03-01T04:10:15.534Z,-1.30
2023-03-01T04:12:44.115Z,-1.24
2023-03-01T04:15:15.482Z,-1.25
2023-03-01T04:17:43.885Z,-1.34
2023-03-01T04:20:25.629Z,-1.31
2023-03-01T04:22:59.757Z,-1.25
2023-03-01T04:25:27.140Z,-1.25
2023-03-01T04:27:53.797Z,-1.25
2023-03-01T04:30:20.346Z,-1.25
2023-03-01T04:32:46.755Z,-1.20
2023-03-01T04:35:13.193Z,-1.18
2023-03-01T04:37:39.652Z,-1.12
2023-03-01T04:40:13.867Z,-1.10
2023-03-01T04:42:40.260Z,-1.09
2023-03-01T04:45:13.927Z,-1.07
2023-03-01T04:47:45.336Z,-1.04
2023-03-01T04:50:13.136Z,-1.02
2023-03-01T04:52:39.587Z,-1.04
2023-03-01T04:55:07.112Z,-1.04
2023-03-01T04:57:34.086Z,-1.05
2023-03-01T05:00:00.716Z,-1.07
2023-03-01T05:02:27.440Z,-1.07
2023-03-01T05:04:58.510Z,-1.05
2023-03-01T05:07:25.849Z,-1.07
2023-03-01T05:09:54.658Z,-1.07
2023-03-01T05:12:22.144Z,-1.09
2023-03-01T05:14:48.598Z,-1.08
2023-03-01T05:17:15.023Z,-1.05
2023-03-01T05:19:43.608Z,-1.07
2023-03-01T05:22:10.367Z,-1.07
2023-03-01T05:24:37.086Z,-1.08
2023-03-01T05:27:04.062Z,-1.08
2023-03-01T05:29:35.733Z,-1.08
2023-03-01T05:32:03.728Z,-1.07
2023-03-01T05:34:33.032Z,-1.08
2023-03-01T05:37:00.112Z,-1.07
2023-03-01T05:39:28.425Z,-1.07
2023-03-01T05:41:56.743Z,-1.09
2023-03-01T05:44:24.174Z,-1.10
2023-03-01T05:46:51.206Z,-1.09
2023-03-01T05:49:18.270Z,-1.11
2023-03-01T05:51:50.277Z,-1.14
2023-03-01T05:54:17.397Z,-1.13
2023-03-01T05:56:44.315Z,-1.14
2023-03-01T05:59:11.054Z,-1.15
2023-03-01T06:01:38.104Z,-1.19
2023-03-01T06:04:05.709Z,-1.17
2023-03-01T06:06:40.467Z,-1.16
2023-03-01T06:09:10.173Z,-1.17
2023-03-01T06:11:37.786Z,-1.16
2023-03-01T06:14:04.775Z,-1.16
2023-03-01T06:16:31.701Z,-1.17
2023-03-01T06:18:58.350Z,-1.17
2023-03-01T06:21:24.762Z,-1.16
2023-03-01T06:23:51.317Z,-1.14
2023-03-01T06:26:17.782Z,-1.14
2023-03-01T06:28:46.986Z,-1.15
2023-03-01T06:31:14.041Z,-1.15
2023-03-01T06:33:40.778Z,-1.14
2023-03-01T06:36:07.976Z,-1.15
2023-03-01T06:38:34.584Z,-1.17
2023-03-01T06:41:02.163Z,-1.15
2023-03-01T06:43:28.962Z,-1.15
2023-03-01T06:45:55.556Z,-1.17
2023-03-01T06:48:22.032Z,-1.16
2023-03-01T06:50:50.839Z,-1.18
2023-03-01T06:53:17.484Z,-1.17
2023-03-01T06:55:43.989Z,-1.15
2023-03-01T06:58:10.500Z,-1.13
2023-03-01T07:00:36.935Z,-1.12
2023-03-01T07:03:04.357Z,-1.10
2023-03-01T07:05:31.179Z,-1.07
2023-03-01T07:07:57.769Z,-1.03
2023-03-01T07:10:24.849Z,-0.97
2023-03-01T07:12:51.362Z,-0.96
2023-03-01T07:15:18.092Z,-0.93
2023-03-01T07:17:45.535Z,-0.90
2023-03-01T07:20:12.667Z,-0.89
2023-03-01T07:22:41.784Z,-0.86
2023-03-01T07:25:08.629Z,-0.82
2023-03-01T07:27:35.210Z,-0.78
2023-03-01T07:30:01.954Z,-0.75
2023-03-01T07:32:28.444Z,-0.73
2023-03-01T07:34:54.977Z,-0.70
2023-03-01T07:37:21.492Z,-0.65
2023-03-01T07:39:47.899Z,-0.63
2023-03-01T07:42:14.368Z,-0.58
2023-03-01T07:44:40.792Z,-0.54
2023-03-01T07:47:07.267Z,-0.52
2023-03-01T07:49:33.723Z,-0.46
2023-03-01T07:52:00.131Z,-0.42
2023-03-01T07:54:27.258Z,-0.37
2023-03-01T07:56:55.718Z,-0.35
2023-03-01T07:59:22.220Z,-0.33
2023-03-01T08:01:48.670Z,-0.28
2023-03-01T08:04:15.196Z,-0.24
2023-03-01T08:06:41.762Z,-0.20
2023-03-01T08:09:09.464Z,-0.16
2023-03-01T08:11:36.206Z,-0.11
2023-03-01T08:14:02.749Z,-0.07
2023-03-01T08:16:31.455Z,-0.01
2023-03-01T08:19:01.579Z,0.03
2023-03-01T08:21:29.206Z,0.09
2023-03-01T08:23:55.642Z,0.11
2023-03-01T08:26:22.477Z,0.14
2023-03-01T08:28:49.970Z,0.13
2023-03-01T08:31:31.896Z,0.15
2023-03-01T08:34:01.018Z,0.19
2023-03-01T08:36:33.986Z,0.21
2023-03-01T08:39:00.707Z,0.21
2023-03-01T08:41:27.784Z,0.24
2023-03-01T08:43:59.366Z,0.37
2023-03-01T08:46:31.430Z,0.47
2023-03-01T08:48:58.189Z,0.48
2023-03-01T08:51:25.931Z,0.53
2023-03-01T08:53:52.820Z,0.58
2023-03-01T08:56:20.383Z,0.67
2023-03-01T08:58:48.532Z,0.75
2023-03-01T09:01:17.877Z,0.81
2023-03-01T09:03:45.132Z,0.89
2023-03-01T09:06:12.549Z,0.87
2023-03-01T09:08:41.525Z,0.96
2023-03-01T09:11:10.348Z,0.93
2023-03-01T09:13:37.446Z,1.00
2023-03-01T09:16:06.652Z,1.03
2023-03-01T09:18:33.724Z,1.10
2023-03-01T09:21:08.367Z,1.15
2023-03-01T09:23:40.158Z,1.15
2023-03-01T09:26:09.382Z,1.18
2023-03-01T09:28:39.910Z,1.22
2023-03-01T09:31:06.553Z,1.24
2023-03-01T09:33:34.482Z,1.28
2023-03-01T09:36:03.856Z,1.31
2023-03-01T09:38:30.450Z,1.32
2023-03-01T09:40:57.512Z,1.34
2023-03-01T09:43:56.450Z,1.32
2023-03-01T09:46:25.575Z,1.49
2023-03-01T09:49:06.306Z,1.50
2023-03-01T09:51:37.110Z,1.52
2023-03-01T09:54:05.698Z,1.59
2023-03-01T09:56:40.241Z,1.61
2023-03-01T09:59:24.250Z,1.71
2023-03-01T10:02:09.429Z,1.71
2023-03-01T10:04:49.578Z,1.87
2023-03-01T10:07:29.244Z,1.86
2023-03-01T10:09:55.956Z,2.02
2023-03-01T10:12:27.261Z,2.02
2023-03-01T10:14:56.974Z,2.08
2023-03-01T10:17:34.446Z,2.08
2023-03-01T10:20:15.024Z,2.10
2023-03-01T10:22:41.444Z,2.12
2023-03-01T10:25:15.552Z,2.13
2023-03-01T10:27:52.317Z,2.27
2023-03-01T10:30:21.975Z,2.20
2023-03-01T10:32:51.178Z,2.30
2023-03-01T10:35:24.207Z,2.43
2023-03-01T10:38:04.833Z,2.52
2023-03-01T10:40:33.413Z,2.49
2023-03-01T10:43:02.924Z,2.52
2023-03-01T10:45:41.915Z,2.47
2023-03-01T10:48:25.425Z,2.47
2023-03-01T10:51:07.030Z,2.44
2023-03-01T10:53:33.524Z,2.52
2023-03-01T10:56:07.770Z,2.59
2023-03-01T10:58:36.276Z,2.47
2023-03-01T11:01:16.605Z,2.54
2023-03-01T11:03:43.208Z,2.69
2023-03-01T11:06:12.635Z,2.72
2023-03-01T11:08:43.971Z,2.60
2023-03-01T11:11:10.356Z,2.54
2023-03-01T11:13:40.046Z,2.54
2023-03-01T11:16:13.455Z,2.43
2023-03-01T11:18:47.447Z,2.36
2023-03-01T11:21:16.930Z,2.59
2023-03-01T11:23:46.588Z,2.72
2023-03-01T11:26:14.143Z,2.81
2023-03-01T11:28:43.575Z,2.90
2023-03-01T11:31:15.850Z,2.97
2023-03-01T11:33:49.327Z,2.92
2023-03-01T11:36:35.725Z,2.87
2023-03-01T11:39:21.451Z,2.98
2023-03-01T11:41:54.105Z,3.31
2023-03-01T11:44:31.306Z,3.29
2023-03-01T11:47:04.073Z,3.16
2023-03-01T11:49:52.500Z,3.40
2023-03-01T11:52:31.596Z,3.38
2023-03-01T11:55:12.739Z,3.43
2023-03-01T11:58:04.198Z,3.57
2023-03-01T12:00:45.953Z,3.50
2023-03-01T12:03:24.183Z,3.51
2023-03-01T12:06:04.615Z,3.52
2023-03-01T12:08:41.788Z,3.69
2023-03-01T12:11:40.850Z,3.65
2023-03-01T12:14:07.675Z,3.66
2023-03-01T12:16:54.594Z,3.63
2023-03-01T12:19:39.396Z,3.76
2023-03-01T12:22:26.585Z,3.67
2023-03-01T12:25:14.794Z,3.73
2023-03-01T12:27:59.048Z,3.68
2023-03-01T12:30:59.941Z,3.87
2023-03-01T12:33:41.596Z,3.91
2023-03-01T12:36:27.554Z,4.26
2023-03-01T12:39:19.986Z,4.24
2023-03-01T12:41:59.042Z,4.32
2023-03-01T12:44:47.137Z,4.38
2023-03-01T12:47:23.033Z,4.32
2023-03-01T12:49:56.939Z,4.49
2023-03-01T12:52:23.605Z,4.60
2023-03-01T12:54:54.718Z,4.56
2023-03-01T12:57:54.551Z,4.69
2023-03-01T13:01:15.377Z,4.61
2023-03-01T13:04:04.226Z,4.64
2023-03-01T13:06:49.463Z,4.70
2023-03-01T13:09:49.386Z,4.77
2023-03-01T13:12:47.143Z,4.98
2023-03-01T13:15:22.911Z,5.34
2023-03-01T13:17:52.728Z,5.84
2023-03-01T13:20:27.406Z,6.45
2023-03-01T13:23:20.203Z,6.80
2023-03-01T13:26:14.702Z,7.24
2023-03-01T13:28:57.061Z,7.29
2023-03-01T13:31:27.107Z,7.36
2023-03-01T13:33:59.413Z,7.51
2023-03-01T13:36:29.218Z,7.68
2023-03-01T13:38:59.154Z,7.57
2023-03-01T13:41:50.716Z,7.59
2023-03-01T13:44:39.747Z,7.64
2023-03-01T13:47:15.136Z,7.68
2023-03-01T13:49:51.170Z,7.79
2023-03-01T13:52:42.879Z,7.33
2023-03-01T13:55:15.831Z,7.06
2023-03-01T13:57:45.665Z,7.05
2023-03-01T14:00:32.298Z,6.97
2023-03-01T14:03:06.369Z,6.90
2023-03-01T14:05:33.859Z,6.88
2023-03-01T14:08:00.362Z,6.91
2023-03-01T14:10:40.751Z,6.68
2023-03-01T14:13:51.857Z,6.61
2023-03-01T14:16:35.518Z,6.54
2023-03-01T14:19:33.868Z,6.57
2023-03-01T14:22:22.189Z,6.69
2023-03-01T14:24:52.781Z,6.64
2023-03-01T14:27:19.988Z,6.59
2023-03-01T14:30:00.033Z,6.62
2023-03-01T14:32:31.747Z,6.63
2023-03-01T14:35:00.302Z,6.58
2023-03-01T14:37:32.285Z,6.65
2023-03-01T14:40:01.430Z,6.54
2023-03-01T14:42:34.924Z,6.40
2023-03-01T14:45:03.207Z,6.31
2023-03-01T14:47:33.309Z,6.36
2023-03-01T14:50:05.013Z,6.47
2023-03-01T14:52:35.880Z,6.53
2023-03-01T14:55:04.810Z,6.54
2023-03-01T14:57:31.320Z,6.58
2023-03-01T15:00:06.118Z,6.39
2023-03-01T15:02:33.804Z,6.32
2023-03-01T15:05:06.715Z,6.28
2023-03-01T15:07:40.877Z,6.17
2023-03-01T15:10:15.382Z,6.13
2023-03-01T15:12:42.729Z,6.12
2023-03-01T15:15:33.924Z,6.05
2023-03-01T15:18:22.237Z,6.07
2023-03-01T15:20:50.473Z,6.02
2023-03-01T15:23:20.404Z,6.01
2023-03-01T15:25:46.938Z,6.05
2023-03-01T15:28:21.480Z,6.06
2023-03-01T15:30:56.567Z,6.08
2023-03-01T15:33:28.203Z,6.03
2023-03-01T15:35:57.144Z,5.98
2023-03-01T15:38:34.318Z,5.92
2023-03-01T15:41:05.449Z,5.86
2023-03-01T15:43:47.383Z,5.84
2023-03-01T15:46:21.049Z,5.81
2023-03-01T15:48:50.504Z,5.78
2023-03-01T15:51:17.630Z,5.72
2023-03-01T15:53:54.601Z,5.70
2023-03-01T15:56:21.736Z,5.76
2023-03-01T15:58:48.361Z,5.79
2023-03-01T16:01:17.774Z,5.73
2023-03-01T16:03:45.282Z,5.62
2023-03-01T16:06:12.743Z,5.58
2023-03-01T16:08:39.632Z,5.57
2023-03-01T16:11:14.893Z,5.59
2023-03-01T16:13:41.431Z,5.55
2023-03-01T16:16:13.440Z,5.47
2023-03-01T16:18:40.264Z,5.43
2023-03-01T16:21:07.166Z,5.41
2023-03-01T16:23:33.870Z,5.39
2023-03-01T16:26:01.567Z,5.37
2023-03-01T16:28:29.369Z,5.33
2023-03-01T16:30:56.733Z,5.29
2023-03-01T16:33:29.994Z,5.23
2023-03-01T16:36:01.103Z,5.22
2023-03-01T16:38:27.725Z,5.14
2023-03-01T16:40:54.261Z,5.06
2023-03-01T16:43:21.105Z,5.02
2023-03-01T16:45:47.764Z,4.96
2023-03-01T16:48:14.663Z,4.92
2023-03-01T16:50:41.621Z,4.89
2023-03-01T16:53:08.115Z,4.86
2023-03-01T16:55:34.626Z,4.84
2023-03-01T16:58:02.181Z,4.78
2023-03-01T17:00:29.400Z,4.73
2023-03-01T17:02:55.952Z,4.71
2023-03-01T17:05:24.807Z,4.65
2023-03-01T17:07:51.694Z,4.61
2023-03-01T17:10:18.259Z,4.58
2023-03-01T17:12:44.745Z,4.51
2023-03-01T17:15:12.755Z,4.43
2023-03-01T17:17:39.227Z,4.38
2023-03-01T17:20:06.199Z,4.33
2023-03-01T17:22:32.629Z,4.29
2023-03-01T17:24:59.131Z,4.29
2023-03-01T17:27:25.681Z,4.27
2023-03-01T17:29:52.273Z,4.25
2023-03-01T17:32:18.900Z,4.21
2023-03-01T17:34:46.376Z,4.20
2023-03-01T17:37:12.891Z,4.16
2023-03-01T17:39:39.330Z,4.14
2023-03-01T17:42:06.606Z,4.11
2023-03-01T17:44:34.691Z,4.10
2023-03-01T17:47:05.759Z,4.07
2023-03-01T17:49:33.101Z,3.99
2023-03-01T17:52:00.275Z,3.95
2023-03-01T17:54:27.225Z,3.94
2023-03-01T17:56:53.895Z,3.90
2023-03-01T17:59:20.477Z,3.85
2023-03-01T18:01:47.397Z,3.83
2023-03-01T18:04:13.939Z,3.81
2023-03-01T18:06:40.961Z,3.79
2023-03-01T18:09:08.244Z,3.82
2023-03-01T18:11:35.539Z,3.83
2023-03-01T18:14:03.035Z,3.82
2023-03-01T18:16:31.796Z,3.80
2023-03-01T18:18:58.853Z,3.75
2023-03-01T18:21:25.325Z,3.76
2023-03-01T18:23:52.446Z,3.76
2023-03-01T18:26:22.155Z,3.75
2023-03-01T18:28:51.612Z,3.73
2023-03-01T18:31:21.596Z,3.71
2023-03-01T18:33:49.895Z,3.74
2023-03-01T18:36:25.637Z,3.73
2023-03-01T18:38:53.760Z,3.70
2023-03-01T18:41:20.263Z,3.66
2023-03-01T18:43:46.804Z,3.65
2023-03-01T18:46:13.386Z,3.63
2023-03-01T18:48:40.239Z,3.59
2023-03-01T18:51:12.475Z,3.55
2023-03-01T18:53:39.524Z,3.55
2023-03-01T18:56:07.688Z,3.53
2023-03-01T18:58:34.194Z,3.52
2023-03-01T19:01:04.195Z,3.52
2023-03-01T19:03:31.253Z,3.54
2023-03-01T19:06:00.921Z,3.53
2023-03-01T19:08:29.383Z,3.51
2023-03-01T19:11:03.115Z,3.53
2023-03-01T19:13:30.552Z,3.49
2023-03-01T19:16:08.975Z,3.46
2023-03-01T19:18:39.920Z,3.44
2023-03-01T19:21:07.726Z,3.38
2023-03-01T19:23:38.443Z,3.37
2023-03-01T19:26:10.790Z,3.35
2023-03-01T19:28:39.554Z,3.32
2023-03-01T19:31:12.388Z,3.28
2023-03-01T19:33:40.281Z,3.25
2023-03-01T19:36:08.859Z,3.25
2023-03-01T19:38:36.479Z,3.24
2023-03-01T19:41:22.660Z,3.22
2023-03-01T19:43:49.109Z,3.22
2023-03-01T19:46:16.370Z,3.19
2023-03-01T19:48:44.821Z,3.16
2023-03-01T19:51:12.363Z,3.16
2023-03-01T19:53:40.270Z,3.11
2023-03-01T19:56:07.613Z,3.10
2023-03-01T19:58:34.274Z,3.12
2023-03-01T20:01:01.032Z,3.12
2023-03-01T20:03:29.906Z,3.11
2023-03-01T20:05:56.756Z,3.09
2023-03-01T20:08:23.947Z,3.06
2023-03-01T20:10:50.948Z,3.04
2023-03-01T20:13:21.089Z,3.01
2023-03-01T20:15:47.916Z,2.99
2023-03-01T20:18:15.382Z,2.95
2023-03-01T20:20:42.942Z,2.92
2023-03-01T20:23:09.363Z,2.92
2023-03-01T20:25:35.857Z,2.90
2023-03-01T20:28:02.446Z,2.86
2023-03-01T20:30:28.869Z,2.82
2023-03-01T20:32:55.427Z,2.83
2023-03-01T20:35:22.421Z,2.79
2023-03-01T20:37:53.249Z,2.74
2023-03-01T20:40:21.450Z,2.70
2023-03-01T20:42:48.000Z,2.70
2023-03-01T20:45:14.850Z,2.66
2023-03-01T20:47:41.294Z,2.61
2023-03-01T20:50:08.096Z,2.53
2023-03-01T20:52:45.842Z,2.52
2023-03-01T20:55:13.830Z,2.52
2023-03-01T20:57:40.283Z,2.53
2023-03-01T21:00:07.411Z,2.52
2023-03-01T21:02:34.058Z,2.50
2023-03-01T21:05:00.518Z,2.50
2023-03-01T21:07:27.408Z,2.47
2023-03-01T21:09:53.943Z,2.41
2023-03-01T21:12:20.689Z,2.39
2023-03-01T21:14:47.286Z,2.32
2023-03-01T21:17:16.279Z,2.30
2023-03-01T21:19:44.636Z,2.26
2023-03-01T21:22:15.692Z,2.24
2023-03-01T21:24:42.876Z,2.27
2023-03-01T21:27:10.138Z,2.32
2023-03-01T21:29:38.761Z,2.34
2023-03-01T21:32:06.409Z,2.40
2023-03-01T21:34:33.818Z,2.38
2023-03-01T21:37:01.620Z,2.33
2023-03-01T21:39:29.110Z,2.28
2023-03-01T21:41:57.326Z,2.25
2023-03-01T21:44:25.835Z,2.23
2023-03-01T21:46:53.565Z,2.19
2023-03-01T21:49:21.145Z,2.22
2023-03-01T21:51:48.736Z,2.23
2023-03-01T21:54:17.720Z,2.20
2023-03-01T21:56:44.772Z,2.19
2023-03-01T21:59:14.782Z,2.18
2023-03-01T22:01:41.571Z,2.18
2023-03-01T22:04:08.534Z,2.19
2023-03-01T22:06:41.216Z,2.20
2023-03-01T22:09:14.950Z,2.21
2023-03-01T22:11:45.382Z,2.21
2023-03-01T22:14:13.911Z,2.22
2023-03-01T22:16:43.333Z,2.22
2023-03-01T22:19:10.050Z,2.21
2023-03-01T22:21:40.815Z,2.21
2023-03-01T22:24:09.128Z,2.23
2023-03-01T22:26:41.594Z,2.20
2023-03-01T22:29:11.614Z,2.17
2023-03-01T22:31:38.997Z,2.13
2023-03-01T22:34:06.068Z,2.12
2023-03-01T22:36:33.663Z,2.11
2023-03-01T22:39:01.759Z,2.10
2023-03-01T22:41:30.654Z,2.10
2023-03-01T22:43:57.368Z,2.10
2023-03-01T22:46:24.764Z,2.09
2023-03-01T22:48:51.621Z,2.10
2023-03-01T22:51:21.629Z,2.07
2023-03-01T22:53:48.219Z,2.08
2023-03-01T22:56:20.785Z,2.08
2023-03-01T22:58:47.579Z,2.05
2023-03-01T23:01:16.965Z,2.03
2023-03-01T23:03:43.872Z,1.99
2023-03-01T23:06:10.875Z,1.96
2023-03-01T23:08:40.692Z,1.93
2023-03-01T23:11:13.208Z,1.92
2023-03-01T23:13:40.777Z,1.92
2023-03-01T23:16:08.213Z,1.90
2023-03-01T23:18:35.206Z,1.89
2023-03-01T23:21:08.014Z,1.90
2023-03-01T23:23:34.504Z,1.88
2023-03-01T23:26:00.940Z,1.88
2023-03-01T23:28:27.398Z,1.86
2023-03-01T23:30:59.496Z,1.84
2023-03-01T23:33:27.314Z,1.85
2023-03-01T23:35:54.250Z,1.81
2023-03-01T23:38:21.337Z,1.79
2023-03-01T23:40:49.292Z,1.78
2023-03-01T23:43:15.794Z,1.78
2023-03-01T23:45:43.105Z,1.78
2023-03-01T23:48:11.649Z,1.76
2023-03-01T23:50:42.061Z,1.73
2023-03-01T23:53:18.573Z,1.73
2023-03-01T23:55:50.130Z,1.72
2023-03-01T23:58:18.149Z,1.70
